Time;durP1;ratioP1;P1;durP2;ratioP2;P2;SDS_P1;SDS_P2;PMS_P1;PMS_P2;Temp;Humidity;BMP_temperature;BMP_pressure;BME280_temperature;BME280_humidity;BME280_pressure;Samples;Min_cycle;Max_cycle;Signal;HPM_P1;HPM_P2
2023/07/07 00:01:12;;;;;;;7.03;4.03;;;;;;;27.45;43.46;99827.53;4490166;31;33852;-76
2023/07/07 00:03:39;;;;;;;6.70;3.72;;;;;;;27.45;43.53;99837.66;4485729;32;33446;-75
2023/07/07 00:06:07;;;;;;;5.87;3.95;;;;;;;27.44;43.53;99833.28;4491522;31;33676;-74
2023/07/07 00:08:35;;;;;;;6.90;4.18;;;;;;;27.43;43.55;99840.69;4501017;31;33173;-75
2023/07/07 00:11:04;;;;;;;5.22;3.15;;;;;;;27.42;43.57;99838.19;4501224;31;34413;-75
2023/07/07 00:13:32;;;;;;;5.55;3.53;;;;;;;27.42;43.58;99829.97;4501466;31;33731;-75
2023/07/07 00:16:00;;;;;;;9.88;3.90;;;;;;;27.40;43.60;99832.13;4500977;31;34207;-74
2023/07/07 00:18:28;;;;;;;5.75;3.58;;;;;;;27.40;43.61;99829.38;4501163;31;34440;-69
2023/07/07 00:20:57;;;;;;;6.85;4.20;;;;;;;27.39;43.61;99839.50;4500992;31;34110;-75
2023/07/07 00:23:25;;;;;;;5.37;3.42;;;;;;;27.40;43.60;99841.16;4501189;31;34072;-75
2023/07/07 00:26:02;;;;;;;6.00;3.40;;;;;;;27.39;43.63;99834.03;4501199;31;33798;-75
2023/07/07 00:28:30;;;;;;;6.32;3.42;;;;;;;27.40;43.64;99832.13;4499775;31;34182;-75
2023/07/07 00:30:57;;;;;;;6.10;3.40;;;;;;;27.39;43.68;99834.03;4500903;31;34840;-73
2023/07/07 00:33:26;;;;;;;7.37;3.83;;;;;;;27.39;43.70;99841.44;4499498;31;33680;-72
2023/07/07 00:35:53;;;;;;;5.85;3.30;;;;;;;27.38;43.74;99839.78;4501186;31;34072;-71
2023/07/07 00:38:21;;;;;;;6.97;3.50;;;;;;;27.36;43.76;99837.28;4486098;31;33463;-75
2023/07/07 00:40:51;;;;;;;5.65;3.55;;;;;;;27.35;43.81;99841.09;4485168;32;33806;-70
2023/07/07 00:43:18;;;;;;;;;;;;;;;27.34;43.87;99847.66;4471214;32;34699;-75
2023/07/07 00:45:46;;;;;;;5.40;3.25;;;;;;;27.44;43.67;99838.75;4485287;32;34933;-72
2023/07/07 00:48:24;;;;;;;5.90;3.40;;;;;;;27.35;43.86;99841.09;4485216;32;33523;-74
2023/07/07 00:50:57;;;;;;;5.78;3.50;;;;;;;27.33;43.93;99843.28;4483926;32;34499;-68
2023/07/07 00:53:25;;;;;;;7.65;3.87;;;;;;;27.30;44.01;99840.19;4483773;32;34657;-73
2023/07/07 00:55:56;;;;;;;5.55;3.50;;;;;;;27.30;44.00;99841.03;4483726;32;33348;-73
2023/07/07 00:58:23;;;;;;;8.10;3.35;;;;;;;27.28;44.03;99845.94;4484071;32;33352;-74
2023/07/07 01:00:57;;;;;;;7.60;3.12;;;;;;;27.29;44.03;99844.84;4470906;32;34065;-73
2023/07/07 01:03:37;;;;;;;5.32;3.40;;;;;;;27.29;44.08;99846.78;4483718;32;34144;-74
2023/07/07 01:06:06;;;;;;;5.65;3.45;;;;;;;27.28;44.09;99847.81;4477683;31;34331;-73
2023/07/07 01:08:34;;;;;;;8.30;3.90;;;;;;;27.28;44.11;99840.47;4499493;31;34464;-72
2023/07/07 01:11:02;;;;;;;7.18;3.60;;;;;;;27.29;44.11;99853.06;4499526;31;33588;-73
2023/07/07 01:13:29;;;;;;;6.20;3.85;;;;;;;27.28;44.15;99850.56;4500726;31;33531;-73
2023/07/07 01:16:18;;;;;;;6.25;4.30;;;;;;;27.26;44.16;99853.56;4499451;31;34148;-73
2023/07/07 01:19:05;;;;;;;6.18;4.05;;;;;;;27.26;44.20;99852.75;4499508;31;34170;-72
2023/07/07 01:21:37;;;;;;;6.45;3.80;;;;;;;27.28;44.19;99847.81;4499586;31;33749;-74
2023/07/07 01:24:43;;;;;;;8.23;4.18;;;;;;;27.24;44.25;99847.53;4487080;31;33917;-74
2023/07/07 01:27:42;;;;;;;8.05;4.10;;;;;;;27.28;44.19;99854.16;4468708;31;33712;-72
2023/07/07 01:30:39;;;;;;;6.10;3.92;;;;;;;27.27;44.23;99848.91;4499417;31;32546;-74
2023/07/07 01:33:09;;;;;;;6.93;3.65;;;;;;;27.24;44.27;99846.69;4499368;31;34531;-74
2023/07/07 01:35:36;;;;;;;5.53;3.62;;;;;;;27.20;44.34;99854.56;4499352;31;34827;-72
2023/07/07 01:38:04;;;;;;;6.55;3.40;;;;;;;27.19;44.33;99847.44;4488387;31;34260;-74
2023/07/07 01:40:32;;;;;;;6.82;4.30;;;;;;;27.18;44.32;99849.31;4483547;32;34289;-70
2023/07/07 01:43:03;;;;;;;9.00;3.60;;;;;;;27.17;44.32;99855.06;4484613;32;34643;-75
2023/07/07 01:45:35;;;;;;;7.78;3.80;;;;;;;27.15;44.30;99852.59;4483534;32;33700;-75
2023/07/07 01:48:18;;;;;;;9.32;4.65;;;;;;;27.15;44.23;99854.50;4483449;32;33963;-72
2023/07/07 01:50:46;;;;;;;5.80;3.33;;;;;;;27.15;44.18;99855.31;4483490;32;32991;-65
2023/07/07 01:53:16;;;;;;;6.80;3.67;;;;;;;27.16;44.13;99858.88;4483458;32;33955;-71
2023/07/07 01:55:47;;;;;;;8.55;4.30;;;;;;;27.15;44.16;99851.75;4470537;32;34000;-70
2023/07/07 01:58:15;;;;;;;7.20;3.78;;;;;;;27.14;44.13;99850.94;4470803;32;34016;-70
2023/07/07 02:00:43;;;;;;;6.87;3.83;;;;;;;27.12;44.12;99847.59;4483470;32;33483;-70
2023/07/07 02:03:11;;;;;;;6.28;4.20;;;;;;;27.12;44.12;99852.25;4470203;32;33797;-75
2023/07/07 02:05:38;;;;;;;6.93;3.90;;;;;;;27.12;44.10;99853.06;4484638;32;34102;-72
2023/07/07 02:08:08;;;;;;;6.70;3.95;;;;;;;27.12;44.08;99853.06;4483467;32;34789;-72
2023/07/07 02:10:36;;;;;;;6.85;4.18;;;;;;;27.13;44.05;99848.44;4484395;32;33458;-63
2023/07/07 02:13:04;;;;;;;6.32;3.97;;;;;;;27.12;44.02;99855.81;4483336;32;33441;-67
2023/07/07 02:15:32;;;;;;;7.70;4.03;;;;;;;27.12;43.99;99847.59;4484309;32;33654;-62
2023/07/07 02:18:01;;;;;;;6.45;3.50;;;;;;;27.11;44.00;99850.59;4484347;32;33752;-65
2023/07/07 02:20:29;;;;;;;6.10;3.83;;;;;;;27.10;43.99;99843.47;4484563;32;32827;-62
2023/07/07 02:22:56;;;;;;;7.35;3.83;;;;;;;27.09;43.97;99842.63;4484275;32;34486;-62
2023/07/07 02:25:24;;;;;;;7.55;4.10;;;;;;;27.08;43.95;99840.09;4484270;32;33969;-72
2023/07/07 02:27:52;;;;;;;7.07;3.75;;;;;;;27.08;43.91;99846.44;4484419;32;34486;-65
2023/07/07 02:30:19;;;;;;;5.95;3.87;;;;;;;27.06;43.91;99851.31;4484263;32;33627;-62
2023/07/07 02:32:47;;;;;;;6.47;3.83;;;;;;;27.06;43.91;99853.22;4484460;32;34857;-68
2023/07/07 02:35:15;;;;;;;7.50;4.28;;;;;;;27.06;43.86;99856.78;4483145;32;34058;-67
2023/07/07 02:37:43;;;;;;;6.47;3.60;;;;;;;27.04;43.88;99850.72;4493805;31;33680;-64
2023/07/07 02:40:10;;;;;;;7.45;4.07;;;;;;;27.04;43.87;99849.88;4500010;31;33226;-69
2023/07/07 02:42:38;;;;;;;10.75;4.70;;;;;;;27.03;43.87;99854.53;4500044;31;33674;-71
2023/07/07 02:45:06;;;;;;;8.52;4.37;;;;;;;27.03;43.87;99845.50;4500026;31;33585;-71
2023/07/07 02:47:33;;;;;;;6.85;4.10;;;;;;;27.01;43.88;99856.72;4499810;31;33685;-65
2023/07/07 02:50:01;;;;;;;6.00;4.12;;;;;;;27.01;43.88;99856.72;4500052;31;33479;-73
2023/07/07 02:52:29;;;;;;;8.13;4.05;;;;;;;27.00;43.89;99856.94;4500057;31;34882;-68
2023/07/07 02:54:57;;;;;;;7.20;3.78;;;;;;;26.99;43.91;99858.84;4500199;31;34672;-65
2023/07/07 02:57:25;;;;;;;6.95;3.80;;;;;;;26.99;43.91;99853.38;4499857;31;33841;-75
2023/07/07 02:59:52;;;;;;;6.37;4.00;;;;;;;26.98;43.92;99865.41;4499992;31;33568;-69
2023/07/07 03:02:20;;;;;;;6.68;3.95;;;;;;;26.99;43.89;99863.50;4499836;31;33490;-68
2023/07/07 03:04:47;;;;;;;9.18;4.12;;;;;;;26.97;43.90;99866.50;4499954;31;33919;-72
2023/07/07 03:07:15;;;;;;;8.23;4.37;;;;;;;26.96;43.91;99871.16;4499828;31;33241;-73
2023/07/07 03:09:43;;;;;;;7.32;4.55;;;;;;;26.96;43.91;99867.59;4500017;31;33425;-70
2023/07/07 03:12:11;;;;;;;6.70;4.35;;;;;;;26.96;43.92;99867.59;4499635;31;33484;-72
2023/07/07 03:14:40;;;;;;;5.85;3.60;;;;;;;26.94;43.91;99870.56;4499612;31;33511;-75
2023/07/07 03:17:09;;;;;;;7.35;3.87;;;;;;;26.94;43.91;99870.56;4499999;31;34488;-64
2023/07/07 03:19:41;;;;;;;6.78;4.07;;;;;;;26.93;43.91;99877.09;4500055;31;34355;-71
2023/07/07 03:22:09;;;;;;;7.30;3.90;;;;;;;26.93;43.92;99884.50;4499857;31;33712;-67
2023/07/07 03:24:37;;;;;;;8.82;3.97;;;;;;;26.94;43.86;99886.16;4499678;31;33806;-75
2023/07/07 03:27:06;;;;;;;7.45;4.25;;;;;;;26.92;43.86;99886.41;4500977;31;34584;-74
2023/07/07 03:29:35;;;;;;;6.22;3.55;;;;;;;26.92;43.83;99886.41;4501579;31;34244;-74
2023/07/07 03:32:03;;;;;;;5.75;3.30;;;;;;;26.91;43.82;99884.75;4501620;31;33756;-71
2023/07/07 03:34:32;;;;;;;6.57;3.70;;;;;;;26.90;43.81;99887.72;4501792;31;33919;-75
2023/07/07 03:37:00;;;;;;;5.45;3.42;;;;;;;26.89;43.80;99892.38;4501262;31;35011;-70
2023/07/07 03:39:28;;;;;;;7.50;3.97;;;;;;;26.90;43.77;99896.75;4501794;31;34576;-71
2023/07/07 03:41:55;;;;;;;6.75;3.80;;;;;;;26.89;43.75;99897.03;4501787;31;33629;-74
2023/07/07 03:44:23;;;;;;;6.43;3.72;;;;;;;26.87;43.76;99900.00;4501172;31;34767;-72
2023/07/07 03:46:52;;;;;;;6.07;3.65;;;;;;;26.87;43.71;99910.97;4501670;31;33872;-74
2023/07/07 03:49:20;;;;;;;6.50;3.83;;;;;;;26.88;43.70;99909.06;4501699;31;33441;-71
2023/07/07 03:51:47;;;;;;;6.47;3.65;;;;;;;26.87;43.70;99910.13;4501372;31;34616;-71
2023/07/07 03:54:15;;;;;;;6.15;3.78;;;;;;;26.86;43.66;99909.31;4501290;31;34986;-62
2023/07/07 03:56:43;;;;;;;6.00;3.85;;;;;;;26.85;43.61;99913.09;4501272;31;33667;-67
2023/07/07 03:59:10;;;;;;;7.30;4.10;;;;;;;26.85;43.58;99913.09;4501392;31;33005;-73
2023/07/07 04:01:38;;;;;;;6.78;4.30;;;;;;;26.84;43.52;99914.19;4501177;31;33900;-74
2023/07/07 04:04:06;;;;;;;6.25;3.92;;;;;;;26.83;43.50;99909.78;4501041;31;33894;-75
2023/07/07 04:06:35;;;;;;;6.57;4.40;;;;;;;26.83;43.44;99914.44;4501530;31;33665;-72
2023/07/07 04:09:02;;;;;;;7.25;4.12;;;;;;;26.82;43.40;99908.13;4501177;31;34368;-73
2023/07/07 04:11:30;;;;;;;8.80;4.50;;;;;;;26.82;43.33;99918.25;4501090;31;34045;-74
2023/07/07 04:13:58;;;;;;;7.32;4.57;;;;;;;26.80;43.31;99918.50;4501189;31;33861;-71
2023/07/07 04:16:25;;;;;;;9.85;4.68;;;;;;;26.82;43.23;99923.75;4501146;31;34787;-75
2023/07/07 04:18:54;;;;;;;9.05;4.70;;;;;;;26.80;43.18;99926.69;4501004;31;33413;-72
2023/07/07 04:21:26;;;;;;;8.43;4.68;;;;;;;26.80;43.18;99928.62;4501371;31;33980;-72
2023/07/07 04:23:55;;;;;;;7.20;4.50;;;;;;;26.80;43.18;99931.34;4500888;31;33925;-63
2023/07/07 04:26:23;;;;;;;7.18;4.18;;;;;;;26.78;43.13;99930.78;4500842;31;34203;-67
2023/07/07 04:28:54;;;;;;;10.30;5.05;;;;;;;26.78;43.11;99937.09;4499784;31;34376;-66
2023/07/07 04:31:23;;;;;;;8.90;4.22;;;;;;;26.76;43.04;99933.75;4500897;31;33626;-68
2023/07/07 04:33:52;;;;;;;7.68;4.00;;;;;;;26.77;43.04;99938.16;4500909;31;34643;-74
2023/07/07 04:36:19;;;;;;;8.93;4.50;;;;;;;26.78;43.00;99941.72;4500424;31;34113;-71
2023/07/07 04:38:48;;;;;;;6.68;3.80;;;;;;;26.76;43.02;99947.44;4484981;32;33396;-62
2023/07/07 04:41:23;;;;;;;7.90;3.87;;;;;;;26.76;43.00;99946.59;4485210;32;33673;-61
2023/07/07 04:43:56;;;;;;;7.43;4.12;;;;;;;26.76;43.02;99946.59;4487051;31;33795;-74
2023/07/07 04:46:35;;;;;;;8.13;4.45;;;;;;;26.76;43.04;99952.06;4494704;31;34720;-71
2023/07/07 04:49:06;;;;;;;7.90;4.57;;;;;;;26.77;43.03;99940.91;4501230;31;33601;-67
2023/07/07 04:51:38;;;;;;;7.00;4.05;;;;;;;26.77;42.99;99948.28;4500728;31;34519;-70
2023/07/07 04:54:10;;;;;;;7.97;4.12;;;;;;;26.76;42.99;99952.06;4501144;31;33971;-74
2023/07/07 04:56:37;;;;;;;6.82;4.50;;;;;;;26.74;43.02;99951.50;4499764;31;33949;-69
2023/07/07 04:59:06;;;;;;;7.05;4.65;;;;;;;26.75;43.03;99950.41;4486467;31;34464;-65
2023/07/07 05:01:35;;;;;;;6.37;4.28;;;;;;;26.74;43.03;99951.50;4500922;31;34655;-62
2023/07/07 05:04:03;;;;;;;7.20;4.00;;;;;;;26.74;43.01;99952.34;4499687;31;33551;-75
2023/07/07 05:06:33;;;;;;;7.75;4.20;;;;;;;26.74;42.97;99954.25;4500751;31;33693;-69
2023/07/07 05:09:01;;;;;;;7.72;4.28;;;;;;;26.72;42.96;99946.28;4499666;31;33711;-68
2023/07/07 05:11:30;;;;;;;7.82;4.45;;;;;;;26.75;42.95;99953.16;4498318;31;34792;-74
2023/07/07 05:13:58;;;;;;;7.62;4.03;;;;;;;26.74;42.97;99952.34;4499414;31;34277;-64
2023/07/07 05:16:31;;;;;;;7.78;4.47;;;;;;;26.76;42.95;99957.56;4499903;31;34147;-64
2023/07/07 05:19:00;;;;;;;7.25;4.28;;;;;;;26.74;43.00;99962.44;4498533;31;33122;-69
2023/07/07 05:21:28;;;;;;;7.62;4.72;;;;;;;26.74;43.00;99959.72;4498146;31;33721;-70
2023/07/07 05:23:55;;;;;;;7.65;4.22;;;;;;;26.75;42.94;99962.19;4498636;31;33630;-67
2023/07/07 05:26:28;;;;;;;8.07;4.22;;;;;;;26.75;42.92;99967.69;4497941;31;33915;-64
2023/07/07 05:29:00;;;;;;;7.25;4.53;;;;;;;26.74;42.94;99968.75;4498651;31;33187;-64
2023/07/07 05:31:27;;;;;;;8.35;4.62;;;;;;;26.74;42.96;99967.94;4498163;31;34849;-63
2023/07/07 05:33:57;;;;;;;6.82;4.40;;;;;;;26.73;42.93;99969.84;4496941;31;33697;-63
2023/07/07 05:36:24;;;;;;;8.45;4.93;;;;;;;26.73;42.95;99971.75;4496988;31;33993;-69
2023/07/07 05:38:52;;;;;;;8.75;4.90;;;;;;;26.73;42.99;99971.75;4499815;31;34149;-69
2023/07/07 05:41:19;;;;;;;7.35;4.50;;;;;;;26.72;43.04;99970.91;4499121;31;33808;-62
2023/07/07 05:43:47;;;;;;;8.50;4.60;;;;;;;26.73;43.09;99963.53;4498906;31;34913;-64
2023/07/07 05:46:15;;;;;;;8.05;4.78;;;;;;;26.73;43.06;99977.22;4500163;31;34472;-68
2023/07/07 05:48:43;;;;;;;8.80;4.87;;;;;;;26.73;43.04;99974.47;4498106;31;34304;-71
2023/07/07 05:51:13;;;;;;;8.48;4.00;;;;;;;26.72;43.03;99973.66;4498889;31;34530;-70
2023/07/07 05:53:43;;;;;;;6.47;4.40;;;;;;;26.70;43.04;99973.88;4499391;31;34193;-71
2023/07/07 05:56:13;;;;;;;10.63;5.47;;;;;;;26.71;42.99;99972.78;4499771;31;33979;-73
2023/07/07 05:58:40;;;;;;;6.57;4.65;;;;;;;26.71;42.94;99978.28;4477174;32;34346;-73
2023/07/07 06:01:13;;;;;;;7.72;4.57;;;;;;;26.74;42.90;99976.13;4496557;31;34076;-70
2023/07/07 06:03:42;;;;;;;5.87;4.18;;;;;;;26.75;42.82;99980.53;4499334;31;34817;-63
2023/07/07 06:06:10;;;;;;;8.55;4.50;;;;;;;26.74;42.77;99984.34;4482233;32;34816;-70
2023/07/07 06:08:38;;;;;;;9.25;5.12;;;;;;;26.75;42.79;99994.22;4483392;32;33502;-74
2023/07/07 06:11:06;;;;;;;7.78;4.75;;;;;;;26.75;42.64;99994.22;4495449;31;33656;-71
2023/07/07 06:13:34;;;;;;;8.45;4.22;;;;;;;26.75;42.42;99989.56;4497514;31;35019;-72
2023/07/07 06:16:01;;;;;;;7.78;5.18;;;;;;;26.76;42.34;99999.44;4497556;31;34172;-62
2023/07/07 06:18:29;;;;;;;7.57;4.55;;;;;;;26.76;42.33;99999.44;4498538;31;33480;-70
2023/07/07 06:20:59;;;;;;;11.27;4.50;;;;;;;26.77;42.34;99997.56;4498674;31;33756;-63
2023/07/07 06:23:28;;;;;;;8.30;4.97;;;;;;;26.78;42.27;99999.22;4498909;31;34109;-71
2023/07/07 06:25:56;;;;;;;9.57;4.93;;;;;;;26.77;42.31;100008.50;4497704;31;34550;-64
2023/07/07 06:28:23;;;;;;;5.93;3.90;;;;;;;26.79;42.28;100009.09;4499351;31;32972;-66
2023/07/07 06:30:51;;;;;;;6.57;4.40;;;;;;;26.77;42.04;100009.34;4487507;31;89226;-65
2023/07/07 06:33:19;;;;;;;7.97;4.35;;;;;;;26.75;41.68;100008.72;4499929;31;34896;-65
2023/07/07 06:35:48;;;;;;;7.35;4.50;;;;;;;26.75;41.42;100011.47;4494161;31;34738;-65
2023/07/07 06:38:15;;;;;;;8.80;5.15;;;;;;;26.75;41.16;100022.41;4499081;31;34148;-66
2023/07/07 06:40:43;;;;;;;9.00;4.55;;;;;;;26.73;40.30;100015.53;4497536;31;33932;-66
2023/07/07 06:43:11;;;;;;;9.10;4.78;;;;;;;26.71;40.64;100015.75;4485573;31;34644;-65
2023/07/07 06:45:38;;;;;;;7.60;4.40;;;;;;;26.72;40.68;100017.44;4498449;31;34097;-65
2023/07/07 06:48:06;;;;;;;9.48;4.93;;;;;;;26.68;40.40;100017.09;4500023;31;33189;-66
2023/07/07 06:50:37;;;;;;;6.55;4.30;;;;;;;26.68;40.38;100021.75;4499244;31;33441;-65
2023/07/07 06:53:05;;;;;;;9.18;5.15;;;;;;;26.67;40.56;100020.91;4498759;31;34304;-65
2023/07/07 06:55:33;;;;;;;6.57;4.53;;;;;;;26.67;40.72;100017.31;4499237;31;34180;-66
2023/07/07 06:58:00;;;;;;;7.62;4.55;;;;;;;26.67;40.02;100023.66;4499136;31;33680;-65
2023/07/07 07:00:29;;;;;;;7.97;4.68;;;;;;;26.66;40.26;100015.66;4487939;31;34604;-65
2023/07/07 07:02:57;;;;;;;6.90;4.18;;;;;;;26.67;40.59;100014.59;4497914;31;33847;-65
2023/07/07 07:05:24;;;;;;;9.50;4.95;;;;;;;26.68;40.71;100022.56;4498949;31;33767;-65
2023/07/07 07:07:52;;;;;;;7.18;4.30;;;;;;;26.70;40.85;100025.06;4497694;31;33363;-65
2023/07/07 07:10:20;;;;;;;6.22;4.15;;;;;;;26.73;40.86;100027.31;4498962;31;34791;-65
2023/07/07 07:12:48;;;;;;;8.35;4.53;;;;;;;26.74;40.88;100019.94;4499595;31;34552;-65
2023/07/07 07:15:15;;;;;;;7.32;4.80;;;;;;;26.76;40.93;100035.03;4499677;31;33989;-65
2023/07/07 07:17:44;;;;;;;6.18;3.90;;;;;;;26.77;40.51;100028.50;4499731;31;33612;-64
2023/07/07 07:20:13;;;;;;;8.70;4.85;;;;;;;26.79;40.39;100037.28;4499496;31;33708;-65
2023/07/07 07:22:41;;;;;;;7.97;4.30;;;;;;;26.80;40.48;100032.66;4498655;31;33665;-65
2023/07/07 07:25:09;;;;;;;7.95;4.55;;;;;;;26.81;40.52;100035.12;4498465;31;33986;-65
2023/07/07 07:27:39;;;;;;;7.97;4.43;;;;;;;26.82;40.52;100036.81;4498636;31;34243;-65
2023/07/07 07:30:15;;;;;;;8.93;4.47;;;;;;;26.84;40.46;100040.13;4499229;31;34138;-66
2023/07/07 07:32:43;;;;;;;7.62;4.28;;;;;;;26.85;40.46;100043.69;4499150;31;33660;-66
2023/07/07 07:35:11;;;;;;;7.43;4.15;;;;;;;26.86;40.43;100043.47;4497993;31;34534;-65
2023/07/07 07:37:39;;;;;;;8.07;4.28;;;;;;;26.88;40.45;100043.22;4499254;31;33465;-66
2023/07/07 07:40:07;;;;;;;9.30;4.62;;;;;;;26.89;40.52;100050.34;4498959;31;34738;-66
2023/07/07 07:42:34;;;;;;;8.68;4.15;;;;;;;26.90;40.54;100041.06;4495117;31;34885;-65
2023/07/07 07:45:02;;;;;;;7.20;4.37;;;;;;;26.92;40.54;100058.09;4498898;31;34128;-65
2023/07/07 07:47:30;;;;;;;8.50;4.12;;;;;;;26.94;40.54;100058.66;4495370;31;33268;-66
2023/07/07 07:49:58;;;;;;;8.32;4.18;;;;;;;26.94;40.64;100053.19;4483382;32;34758;-65
2023/07/07 07:52:25;;;;;;;6.47;4.07;;;;;;;26.96;40.72;100056.53;4489232;31;33564;-65
2023/07/07 07:54:53;;;;;;;7.40;4.43;;;;;;;26.97;40.76;100060.91;4498796;31;34664;-65
2023/07/07 07:57:21;;;;;;;5.95;3.60;;;;;;;26.99;40.79;100066.97;4499180;31;34153;-65
2023/07/07 07:59:49;;;;;;;8.18;4.28;;;;;;;27.00;40.80;100062.31;4499002;31;33391;-65
2023/07/07 08:02:18;;;;;;;;;;;;;;;27.01;40.82;100059.34;4499319;31;33681;-66
2023/07/07 08:04:46;;;;;;;7.00;4.03;;;;;;;27.13;40.57;100056.59;4486517;31;34139;-65
2023/07/07 08:07:13;;;;;;;6.80;4.00;;;;;;;27.06;40.73;100064.09;4498989;31;33495;-65
2023/07/07 08:09:41;;;;;;;7.75;4.28;;;;;;;27.05;40.82;100070.66;4484610;31;33995;-65
2023/07/07 08:12:09;;;;;;;6.50;3.65;;;;;;;27.05;40.86;100067.94;4495892;31;33961;-65
2023/07/07 08:14:37;;;;;;;6.60;4.15;;;;;;;27.05;40.88;100067.94;4501014;31;34806;-65
2023/07/07 08:17:08;;;;;;;6.93;4.30;;;;;;;27.05;40.88;100065.19;4499944;31;33933;-66
2023/07/07 08:19:37;;;;;;;8.90;4.00;;;;;;;27.05;40.91;100068.75;4500921;31;33879;-65
2023/07/07 08:22:06;;;;;;;8.57;4.03;;;;;;;27.08;40.90;100067.41;4486423;31;34030;-65
2023/07/07 08:24:43;;;;;;;6.12;4.28;;;;;;;27.08;40.91;100060.06;4500119;31;33777;-66
2023/07/07 08:27:13;;;;;;;6.57;3.75;;;;;;;27.11;40.87;100067.78;4499721;31;33355;-66
2023/07/07 08:29:44;;;;;;;8.60;4.30;;;;;;;27.10;40.90;100071.63;4486767;31;34001;-65
2023/07/07 08:32:13;;;;;;;7.40;4.10;;;;;;;27.11;40.90;100067.78;4497490;31;33468;-65
2023/07/07 08:34:41;;;;;;;7.63;4.70;;;;;;;27.11;40.89;100070.53;4491205;31;34421;-67
2023/07/07 08:37:22;;;;;;;9.68;4.20;;;;;;;27.15;40.95;100076.38;4499441;31;33633;-66
2023/07/07 08:39:50;;;;;;;7.00;4.28;;;;;;;27.17;41.09;100076.94;4499129;31;34261;-65
2023/07/07 08:42:21;;;;;;;6.97;4.15;;;;;;;27.17;41.14;100072.28;4499064;31;34753;-65
2023/07/07 08:44:49;;;;;;;7.90;4.10;;;;;;;27.18;41.23;100076.69;4485769;31;34812;-66
2023/07/07 08:47:35;;;;;;;6.68;3.90;;;;;;;27.18;41.23;100073.94;4486007;31;33112;-66
2023/07/07 08:50:20;;;;;;;6.18;4.00;;;;;;;27.19;41.24;100080.28;4500634;31;33850;-66
2023/07/07 08:53:13;;;;;;;7.18;3.78;;;;;;;27.21;41.23;100076.19;4499824;31;33749;-66
2023/07/07 08:56:11;;;;;;;6.32;4.05;;;;;;;27.19;41.25;100081.09;4499707;31;34647;-66
2023/07/07 08:59:11;;;;;;;9.20;3.97;;;;;;;27.24;41.21;100087.75;4491976;31;33118;-66
2023/07/07 09:02:04;;;;;;;6.37;4.10;;;;;;;27.22;41.26;100082.50;4464641;31;33876;-66
2023/07/07 09:04:40;;;;;;;9.65;4.15;;;;;;;27.21;41.27;100089.06;4483800;32;34969;-66
2023/07/07 09:07:27;;;;;;;6.78;4.10;;;;;;;27.23;41.28;100092.38;4484996;32;34368;-66
2023/07/07 09:10:26;;;;;;;7.47;4.32;;;;;;;27.21;41.31;100084.44;4485049;32;34181;-66
2023/07/07 09:13:05;;;;;;;7.82;3.85;;;;;;;27.25;41.28;100090.25;4486440;31;34689;-65
2023/07/07 09:15:38;;;;;;;9.93;3.90;;;;;;;27.24;41.30;100085.03;4486896;31;33933;-65
2023/07/07 09:18:14;;;;;;;6.85;4.28;;;;;;;27.25;41.31;100097.66;4499492;31;33714;-66
2023/07/07 09:20:41;;;;;;;8.93;4.55;;;;;;;27.23;41.33;100095.13;4499507;31;33897;-66
2023/07/07 09:23:14;;;;;;;7.55;4.65;;;;;;;27.24;41.31;100099.56;4498598;31;34652;-66
2023/07/07 09:25:44;;;;;;;8.85;4.85;;;;;;;27.25;41.34;100094.91;4499345;31;34026;-66
2023/07/07 09:28:17;;;;;;;6.62;3.92;;;;;;;27.25;41.33;100098.47;4486776;31;33904;-65
2023/07/07 09:30:47;;;;;;;9.48;4.60;;;;;;;27.26;41.32;100088.34;4499318;31;33483;-66
2023/07/07 09:33:19;;;;;;;9.45;4.97;;;;;;;27.26;41.53;100091.09;4473267;31;33911;-64
2023/07/07 09:36:00;;;;;;;9.32;4.57;;;;;;;27.29;41.76;100093.34;4499341;31;34899;-64
2023/07/07 09:38:49;;;;;;;8.75;4.45;;;;;;;27.32;41.81;100098.31;4499343;31;33831;-66
2023/07/07 09:41:45;;;;;;;8.13;4.35;;;;;;;27.32;41.89;100101.87;4499147;31;33372;-65
2023/07/07 09:44:12;;;;;;;8.00;4.80;;;;;;;27.32;42.04;100093.66;4482744;32;34066;-66
2023/07/07 09:46:43;;;;;;;10.85;4.82;;;;;;;27.32;42.17;100096.41;4486334;31;34743;-66
2023/07/07 09:49:27;;;;;;;9.73;4.80;;;;;;;27.33;42.21;100100.00;4484709;32;34973;-65
2023/07/07 09:52:00;;;;;;;9.63;4.55;;;;;;;27.35;42.25;100098.66;4483370;32;34470;-66
2023/07/07 09:54:28;;;;;;;15.40;5.25;;;;;;;27.33;42.37;100098.09;4470595;32;33559;-65
2023/07/07 09:57:09;;;;;;;11.12;4.95;;;;;;;27.35;42.40;100097.81;4494150;31;33735;-65
2023/07/07 09:59:41;;;;;;;8.65;4.15;;;;;;;27.38;42.31;100100.09;4475789;31;34044;-65
2023/07/07 10:02:12;;;;;;;9.23;4.25;;;;;;;27.34;42.21;100091.53;4492901;31;33500;-65
2023/07/07 10:04:42;;;;;;;8.10;4.28;;;;;;;27.34;42.15;100091.53;4483016;31;33798;-65
2023/07/07 10:07:09;;;;;;;;;;;;;;;27.36;42.09;100094.84;4499314;31;33991;-66
2023/07/07 10:09:37;;;;;;;11.60;4.43;;;;;;;27.46;41.84;100096.94;4500127;31;34623;-66
2023/07/07 10:12:07;;;;;;;8.52;4.15;;;;;;;27.38;41.96;100100.09;4500346;31;33604;-66
2023/07/07 10:14:50;;;;;;;9.88;4.55;;;;;;;27.36;42.02;100094.84;4499161;31;33669;-66
2023/07/07 10:17:46;;;;;;;7.47;4.20;;;;;;;27.36;42.03;100100.31;4499262;31;34894;-66
2023/07/07 10:20:14;;;;;;;10.07;4.72;;;;;;;27.39;42.05;100096.25;4464115;31;33796;-66
2023/07/07 10:22:42;;;;;;;10.70;4.50;;;;;;;27.36;42.12;100108.53;4499844;31;33459;-66
2023/07/07 10:25:13;;;;;;;7.62;4.07;;;;;;;27.37;42.16;100106.62;4499719;31;34505;-65
2023/07/07 10:27:49;;;;;;;9.02;4.80;;;;;;;27.37;42.24;100101.13;4498810;31;35000;-66
2023/07/07 10:30:16;;;;;;;7.75;4.03;;;;;;;27.38;42.24;100102.81;4482999;31;33857;-65
2023/07/07 10:32:50;;;;;;;8.43;4.35;;;;;;;27.38;42.26;100091.87;4486660;31;33361;-66
2023/07/07 10:35:19;;;;;;;7.57;4.40;;;;;;;27.38;42.25;100100.09;4499635;31;34160;-66
2023/07/07 10:37:47;;;;;;;9.00;4.68;;;;;;;27.38;42.25;100095.44;4497972;31;33618;-65
2023/07/07 10:40:21;;;;;;;10.82;4.43;;;;;;;27.38;42.22;100089.13;4498935;31;33818;-66
2023/07/07 10:42:56;;;;;;;10.10;4.75;;;;;;;27.39;42.22;100088.03;4486530;31;32950;-67
2023/07/07 10:45:24;;;;;;;9.68;4.65;;;;;;;27.41;42.19;100088.63;4499410;31;33478;-66
2023/07/07 10:47:51;;;;;;;8.77;4.30;;;;;;;27.41;42.13;100086.69;4499703;31;34127;-66
2023/07/07 10:50:25;;;;;;;8.73;4.47;;;;;;;27.41;42.10;100081.22;4500124;31;34200;-65
2023/07/07 10:53:11;;;;;;;7.57;4.20;;;;;;;27.41;42.06;100081.22;4500358;31;33616;-65
2023/07/07 10:56:08;;;;;;;7.72;4.57;;;;;;;27.44;41.98;100079.91;4486401;31;34533;-66
2023/07/07 10:58:52;;;;;;;9.63;4.85;;;;;;;27.44;42.13;100083.47;4492025;31;34866;-65
2023/07/07 11:01:42;;;;;;;10.15;4.82;;;;;;;27.48;42.05;100085.75;4498329;31;35084;-65
2023/07/07 11:04:40;;;;;;;8.43;4.68;;;;;;;27.46;42.13;100091.44;4498287;31;33195;-64
2023/07/07 11:07:23;;;;;;;11.90;5.28;;;;;;;27.49;42.09;100082.75;4491920;31;34792;-65
2023/07/07 11:09:57;;;;;;;9.65;4.68;;;;;;;27.49;42.22;100081.91;4482799;32;33954;-66
2023/07/07 11:12:34;;;;;;;8.93;5.18;;;;;;;27.45;42.30;100082.41;4483058;32;33851;-66
2023/07/07 11:15:14;;;;;;;10.80;5.05;;;;;;;27.46;42.30;100077.75;4482790;32;34481;-65
2023/07/07 11:18:19;;;;;;;8.90;4.70;;;;;;;27.48;42.39;100080.25;4483073;32;33749;-66
2023/07/07 11:20:56;;;;;;;7.97;5.15;;;;;;;27.49;42.43;100080.00;4483873;32;34043;-66
2023/07/07 11:23:36;;;;;;;7.20;4.40;;;;;;;27.48;42.49;100077.50;4497051;31;34014;-66
2023/07/07 11:26:07;;;;;;;;;;;;;;;27.49;42.55;100077.25;4498714;31;34243;-66
2023/07/07 11:28:51;;;;;;;12.07;4.68;;;;;;;27.58;42.40;100081.25;4499426;31;34255;-66
2023/07/07 11:31:32;;;;;;;8.05;4.32;;;;;;;27.51;42.67;100077.00;4498225;31;34943;-66
2023/07/07 11:34:18;;;;;;;9.13;4.40;;;;;;;27.50;42.79;100078.91;4498449;31;33391;-66
2023/07/07 11:36:48;;;;;;;9.30;4.62;;;;;;;27.51;42.88;100071.53;4499338;31;33347;-65
2023/07/07 11:39:45;;;;;;;9.32;4.82;;;;;;;27.49;42.93;100074.53;4498895;31;34643;-66
2023/07/07 11:42:25;;;;;;;10.45;5.03;;;;;;;27.52;42.98;100071.28;4498447;31;34735;-65
2023/07/07 11:45:01;;;;;;;10.75;5.10;;;;;;;27.52;43.01;100076.78;4485557;31;33705;-65
2023/07/07 11:47:35;;;;;;;14.60;5.35;;;;;;;27.55;43.02;100075.44;4495769;31;33911;-65
2023/07/07 11:50:31;;;;;;;9.15;4.70;;;;;;;27.56;42.96;100077.09;4498435;31;33947;-65